Time;durP1;ratioP1;P1;durP2;ratioP2;P2;SDS_P1;SDS_P2;PMS_P1;PMS_P2;Temp;Humidity;BMP_temperature;BMP_pressure;BME280_temperature;BME280_humidity;BME280_pressure;Samples;Min_cycle;Max_cycle;Signal;HPM_P1;HPM_P2
2023/07/08 00:01:13;;;;;;;;;;;18.70;87.20;;;;;;5078622;28;19924;-43
2023/07/08 00:03:39;;;;;;;;;;;18.60;86.90;;;;;;5072369;28;19935;-42
2023/07/08 00:06:18;;;;;;;;;;;18.70;87.10;;;;;;5073273;28;19925;-43
2023/07/08 00:08:45;;;;;;;;;;;18.60;87.30;;;;;;5071573;28;20395;-43
2023/07/08 00:11:13;;;;;;;;;;;18.60;88.40;;;;;;5063687;28;19986;-43
2023/07/08 00:13:40;;;;;;;;;;;18.60;89.90;;;;;;5069891;28;19933;-42
2023/07/08 00:16:08;;;;;;;;;;;18.50;88.50;;;;;;5073007;28;19969;-43
2023/07/08 00:18:35;;;;;;;;;;;18.50;88.40;;;;;;5066638;28;19935;-43
2023/07/08 00:21:03;;;;;;;;;;;18.40;89.60;;;;;;5078838;28;20353;-43
2023/07/08 00:23:29;;;;;;;;;;;18.40;89.30;;;;;;5068711;28;19932;-43
2023/07/08 00:25:56;;;;;;;;;;;18.30;89.40;;;;;;5071503;28;19929;-44
2023/07/08 00:28:24;;;;;;;;;;;18.30;90.40;;;;;;5075223;28;19924;-43
2023/07/08 00:30:52;;;;;;;;;;;18.30;90.10;;;;;;5069840;28;19982;-43
2023/07/08 00:33:19;;;;;;;;;;;18.30;90.00;;;;;;5054480;28;19979;-43
2023/07/08 00:35:46;;;;;;;;;;;18.20;90.00;;;;;;5054817;28;19925;-43
2023/07/08 00:38:15;;;;;;;;;;;18.20;90.50;;;;;;5058835;28;19939;-43
2023/07/08 00:40:49;;;;;;;;;;;18.20;90.70;;;;;;5058307;28;20024;-43
2023/07/08 00:43:16;;;;;;;;;;;18.10;91.40;;;;;;5068237;28;19925;-43
2023/07/08 00:45:44;;;;;;;;;;;18.00;92.20;;;;;;5054693;28;19928;-43
2023/07/08 00:48:14;;;;;;;;;;;18.00;91.10;;;;;;5062081;28;20035;-42
2023/07/08 00:50:42;;;;;;;;;;;18.00;92.10;;;;;;5069782;28;19924;-43
2023/07/08 00:53:25;;;;;;;;;;;17.90;92.00;;;;;;5086963;28;19943;-43
2023/07/08 00:55:52;;;;;;;;;;;17.90;92.10;;;;;;5105340;28;20457;-41
2023/07/08 00:58:19;;;;;;;;;;;17.90;92.60;;;;;;5078118;28;19939;-44
2023/07/08 01:00:49;;;;;;;;;;;17.80;92.50;;;;;;5070475;28;19925;-43
2023/07/08 01:03:17;;;;;;;;;;;17.80;92.10;;;;;;5071266;28;19986;-42
2023/07/08 01:05:44;;;;;;;;;;;17.80;92.60;;;;;;5053897;28;19931;-43
2023/07/08 01:08:11;;;;;;;;;;;17.80;92.20;;;;;;5114784;27;20665;-43
2023/07/08 01:10:45;;;;;;;;;;;17.70;92.10;;;;;;5070759;28;19978;-43
2023/07/08 01:13:12;;;;;;;;;;;17.70;92.60;;;;;;5055615;28;19931;-43
2023/07/08 01:15:40;;;;;;;;;;;17.70;92.30;;;;;;5066335;28;19978;-43
2023/07/08 01:18:08;;;;;;;;;;;17.70;92.40;;;;;;5070208;28;19924;-43
2023/07/08 01:20:34;;;;;;;;;;;17.60;92.70;;;;;;5065109;28;20126;-43
2023/07/08 01:23:04;;;;;;;;;;;17.60;93.30;;;;;;5053684;28;19978;-43
2023/07/08 01:25:31;;;;;;;;;;;17.60;92.50;;;;;;5065120;28;19931;-43
2023/07/08 01:27:58;;;;;;;;;;;17.60;93.30;;;;;;5059819;28;20346;-43
2023/07/08 01:30:25;;;;;;;;;;;17.50;93.80;;;;;;5062124;28;20023;-43
2023/07/08 01:32:52;;;;;;;;;;;17.50;93.80;;;;;;5072139;28;19924;-42
2023/07/08 01:35:19;;;;;;;;;;;17.50;94.10;;;;;;5072017;28;19929;-43
2023/07/08 01:37:47;;;;;;;;;;;17.40;93.90;;;;;;5060924;28;20303;-43
2023/07/08 01:40:23;;;;;;;;;;;17.40;93.90;;;;;;5068496;28;19946;-43
2023/07/08 01:42:49;;;;;;;;;;;17.40;95.50;;;;;;5076469;28;20433;-43
2023/07/08 01:45:16;;;;;;;;;;;17.30;94.80;;;;;;5104774;28;19930;-42
2023/07/08 01:47:43;;;;;;;;;;;17.30;94.30;;;;;;5070203;28;20425;-42
2023/07/08 01:50:10;;;;;;;;;;;17.30;94.70;;;;;;5068856;28;19978;-42
2023/07/08 01:52:37;;;;;;;;;;;17.30;96.90;;;;;;5070255;28;19928;-43
2023/07/08 01:55:04;;;;;;;;;;;17.20;95.30;;;;;;5070335;28;19995;-43
2023/07/08 01:57:32;;;;;;;;;;;17.20;95.60;;;;;;5071973;28;20311;-43
2023/07/08 01:59:59;;;;;;;;;;;17.20;95.20;;;;;;5072457;28;20034;-43
2023/07/08 02:02:25;;;;;;;;;;;17.20;95.50;;;;;;5074026;28;20396;-44
2023/07/08 02:04:52;;;;;;;;;;;17.20;95.70;;;;;;5073861;28;19932;-43
2023/07/08 02:07:19;;;;;;;;;;;17.20;96.40;;;;;;5074917;28;20437;-43
2023/07/08 02:09:46;;;;;;;;;;;17.10;98.70;;;;;;5074739;28;19929;-43
2023/07/08 02:12:12;;;;;;;;;;;17.10;97.70;;;;;;5073679;28;19924;-43
2023/07/08 02:14:40;;;;;;;;;;;17.00;97.40;;;;;;5073715;28;19935;-43
2023/07/08 02:17:07;;;;;;;;;;;17.00;97.30;;;;;;5106544;28;19971;-43
2023/07/08 02:19:33;;;;;;;;;;;17.00;97.10;;;;;;5109932;27;19925;-43
2023/07/08 02:22:00;;;;;;;;;;;17.00;97.30;;;;;;5075451;28;19986;-43
2023/07/08 02:24:27;;;;;;;;;;;17.00;96.90;;;;;;5080681;28;19924;-43
2023/07/08 02:26:53;;;;;;;;;;;16.90;98.00;;;;;;5086351;28;19982;-42
2023/07/08 02:29:20;;;;;;;;;;;16.90;97.50;;;;;;5083578;28;19924;-43
2023/07/08 02:31:48;;;;;;;;;;;16.90;97.40;;;;;;5073272;28;19925;-42
2023/07/08 02:34:15;;;;;;;;;;;16.90;98.40;;;;;;5075754;28;19928;-42
2023/07/08 02:36:42;;;;;;;;;;;16.90;97.80;;;;;;5062310;28;20324;-43
2023/07/08 02:39:08;;;;;;;;;;;16.90;97.20;;;;;;5072604;28;19931;-43
2023/07/08 02:41:35;;;;;;;;;;;16.80;97.80;;;;;;5072966;28;19924;-42
2023/07/08 02:44:02;;;;;;;;;;;16.80;98.60;;;;;;5073055;28;19990;-43
2023/07/08 02:46:28;;;;;;;;;;;16.80;99.90;;;;;;5074833;28;19947;-43
2023/07/08 02:48:56;;;;;;;;;;;16.80;98.90;;;;;;5072783;28;19928;-43
2023/07/08 02:51:23;;;;;;;;;;;16.70;99.20;;;;;;5072938;28;19928;-43
2023/07/08 02:53:50;;;;;;;;;;;16.70;99.00;;;;;;5064246;28;19925;-42
2023/07/08 02:56:17;;;;;;;;;;;16.70;98.40;;;;;;5065945;28;19931;-43
2023/07/08 02:58:43;;;;;;;;;;;16.70;98.40;;;;;;5074154;28;19925;-43
2023/07/08 03:01:10;;;;;;;;;;;16.70;98.50;;;;;;5107454;27;19932;-43
2023/07/08 03:03:38;;;;;;;;;;;16.70;99.40;;;;;;5073830;28;19931;-43
2023/07/08 03:06:06;;;;;;;;;;;16.60;99.50;;;;;;5072773;28;20304;-44
2023/07/08 03:08:33;;;;;;;;;;;16.60;99.10;;;;;;5105813;28;19931;-43
2023/07/08 03:11:00;;;;;;;;;;;16.60;99.90;;;;;;5071709;28;20380;-44
2023/07/08 03:13:26;;;;;;;;;;;16.60;99.90;;;;;;5067798;28;19929;-43
2023/07/08 03:15:54;;;;;;;;;;;16.60;99.40;;;;;;5065627;28;19924;-43
2023/07/08 03:18:23;;;;;;;;;;;16.60;99.80;;;;;;5073917;28;19931;-43
2023/07/08 03:20:50;;;;;;;;;;;16.50;99.90;;;;;;5073294;28;20010;-44
2023/07/08 03:23:18;;;;;;;;;;;16.50;99.70;;;;;;5072312;28;19985;-43
2023/07/08 03:25:44;;;;;;;;;;;16.50;99.90;;;;;;5073535;28;19925;-44
2023/07/08 03:28:14;;;;;;;;;;;16.50;99.90;;;;;;5062673;28;19931;-43
2023/07/08 03:30:41;;;;;;;;;;;16.40;99.90;;;;;;5068379;28;19925;-43
2023/07/08 03:33:08;;;;;;;;;;;16.40;99.90;;;;;;5073430;28;19932;-43
2023/07/08 03:35:36;;;;;;;;;;;16.40;99.90;;;;;;5063821;28;19931;-43
2023/07/08 03:38:03;;;;;;;;;;;16.40;99.90;;;;;;5061911;28;19979;-44
2023/07/08 03:40:31;;;;;;;;;;;16.40;99.90;;;;;;5073207;28;19939;-44
2023/07/08 03:42:57;;;;;;;;;;;16.40;99.90;;;;;;5073637;28;19978;-43
2023/07/08 03:45:25;;;;;;;;;;;16.40;99.90;;;;;;5072360;28;20629;-43
2023/07/08 03:47:52;;;;;;;;;;;16.40;99.90;;;;;;5104751;28;19978;-43
2023/07/08 03:50:19;;;;;;;;;;;16.30;99.90;;;;;;5067776;28;19928;-43
2023/07/08 03:52:46;;;;;;;;;;;16.40;99.90;;;;;;5071209;28;19928;-44
2023/07/08 03:55:13;;;;;;;;;;;16.30;99.90;;;;;;5072579;28;20003;-44
2023/07/08 03:57:41;;;;;;;;;;;16.40;99.90;;;;;;5071741;28;20446;-43
2023/07/08 04:00:09;;;;;;;;;;;16.30;99.90;;;;;;5072164;28;19994;-43
2023/07/08 04:02:36;;;;;;;;;;;16.30;99.90;;;;;;5091198;28;19928;-44
2023/07/08 04:05:03;;;;;;;;;;;16.30;99.90;;;;;;5088564;28;19932;-44
2023/07/08 04:07:29;;;;;;;;;;;16.30;99.90;;;;;;5072650;28;20014;-44
2023/07/08 04:09:56;;;;;;;;;;;16.30;99.90;;;;;;5072355;28;19935;-43
2023/07/08 04:12:23;;;;;;;;;;;16.30;99.90;;;;;;5071617;28;19924;-43
2023/07/08 04:14:51;;;;;;;;;;;16.30;99.90;;;;;;5084749;28;19928;-43
2023/07/08 04:17:18;;;;;;;;;;;16.30;99.90;;;;;;5084854;28;20668;-44
2023/07/08 04:19:45;;;;;;;;;;;16.30;99.90;;;;;;5072818;28;19925;-44
2023/07/08 04:22:12;;;;;;;;;;;16.30;99.90;;;;;;5086994;28;19950;-44
2023/07/08 04:24:39;;;;;;;;;;;16.30;99.90;;;;;;5085683;28;20368;-43
2023/07/08 04:27:05;;;;;;;;;;;16.30;99.90;;;;;;5070397;28;19924;-43
2023/07/08 04:29:32;;;;;;;;;;;16.30;99.90;;;;;;5069075;28;19950;-44
2023/07/08 04:32:00;;;;;;;;;;;16.30;99.90;;;;;;5072332;28;19972;-44
2023/07/08 04:34:28;;;;;;;;;;;16.30;99.90;;;;;;5069769;28;19978;-43
2023/07/08 04:36:55;;;;;;;;;;;16.30;99.90;;;;;;5070759;28;19928;-43
2023/07/08 04:39:22;;;;;;;;;;;16.40;99.90;;;;;;5071744;28;19929;-43
2023/07/08 04:41:49;;;;;;;;;;;16.40;99.90;;;;;;5061617;28;19931;-44
2023/07/08 04:44:18;;;;;;;;;;;16.40;99.90;;;;;;5071202;28;19925;-43
2023/07/08 04:46:46;;;;;;;;;;;16.40;99.90;;;;;;5080634;28;19949;-44
2023/07/08 04:49:14;;;;;;;;;;;16.50;99.90;;;;;;5086338;28;20445;-43
2023/07/08 04:51:41;;;;;;;;;;;16.50;99.90;;;;;;5072220;28;19924;-42
2023/07/08 04:54:07;;;;;;;;;;;16.50;99.90;;;;;;5071594;28;19935;-43
2023/07/08 04:56:36;;;;;;;;;;;16.50;99.90;;;;;;5075556;28;19924;-43
2023/07/08 04:59:06;;;;;;;;;;;16.60;99.90;;;;;;5059577;28;19925;-43
2023/07/08 05:01:32;;;;;;;;;;;16.60;99.90;;;;;;5100714;27;19966;-44
2023/07/08 05:03:59;;;;;;;;;;;16.70;99.90;;;;;;5052960;28;19931;-44
2023/07/08 05:06:27;;;;;;;;;;;16.70;99.90;;;;;;5072306;28;19925;-43
2023/07/08 05:08:54;;;;;;;;;;;16.70;99.90;;;;;;5070695;28;19924;-43
2023/07/08 05:11:21;;;;;;;;;;;16.80;99.90;;;;;;5066673;28;19970;-44
2023/07/08 05:13:47;;;;;;;;;;;16.80;99.90;;;;;;5084309;28;19928;-44
2023/07/08 05:16:14;;;;;;;;;;;16.90;99.90;;;;;;5069764;28;19974;-43
2023/07/08 05:18:41;;;;;;;;;;;16.90;99.90;;;;;;5073272;28;20289;-43
2023/07/08 05:21:08;;;;;;;;;;;16.90;99.90;;;;;;5070701;28;19939;-43
2023/07/08 05:23:36;;;;;;;;;;;17.10;99.90;;;;;;5070291;28;20380;-43
2023/07/08 05:26:02;;;;;;;;;;;17.20;99.90;;;;;;5070958;28;20593;-44
2023/07/08 05:28:29;;;;;;;;;;;17.20;99.90;;;;;;5077671;28;19979;-43
2023/07/08 05:30:56;;;;;;;;;;;17.30;99.90;;;;;;5071385;28;20338;-43
2023/07/08 05:33:23;;;;;;;;;;;17.40;99.90;;;;;;5064887;28;20038;-43
2023/07/08 05:35:49;;;;;;;;;;;17.50;99.90;;;;;;5107137;28;19924;-44
2023/07/08 05:38:16;;;;;;;;;;;17.60;99.90;;;;;;5076510;28;20342;-43
2023/07/08 05:40:44;;;;;;;;;;;17.70;99.90;;;;;;5079390;28;19924;-43
2023/07/08 05:43:11;;;;;;;;;;;17.80;99.90;;;;;;5073989;28;20315;-43
2023/07/08 05:45:37;;;;;;;;;;;17.90;99.90;;;;;;5068180;28;19969;-44
2023/07/08 05:48:04;;;;;;;;;;;18.00;99.90;;;;;;5086524;28;19947;-44
2023/07/08 05:50:31;;;;;;;;;;;18.20;99.90;;;;;;5066019;28;19933;-44
2023/07/08 05:52:58;;;;;;;;;;;18.30;99.90;;;;;;5082658;28;20392;-44
2023/07/08 05:55:24;;;;;;;;;;;18.40;99.90;;;;;;5069903;28;19929;-44
2023/07/08 05:57:53;;;;;;;;;;;18.60;99.90;;;;;;5066161;28;20308;-43
2023/07/08 06:00:19;;;;;;;;;;;18.70;99.90;;;;;;5088221;28;19947;-44
2023/07/08 06:02:46;;;;;;;;;;;18.80;99.90;;;;;;5073576;28;20013;-44
2023/07/08 06:05:13;;;;;;;;;;;18.90;99.90;;;;;;5071981;28;20312;-44
2023/07/08 06:07:39;;;;;;;;;;;19.00;99.90;;;;;;5063687;28;19933;-44
2023/07/08 06:10:06;;;;;;;;;;;19.10;99.90;;;;;;5088858;28;19924;-42
2023/07/08 06:12:33;;;;;;;;;;;19.30;99.90;;;;;;5054926;28;19924;-44
2023/07/08 06:15:01;;;;;;;;;;;19.40;99.90;;;;;;5079769;28;19978;-44
2023/07/08 06:17:28;;;;;;;;;;;19.50;99.90;;;;;;5077618;28;19932;-43
2023/07/08 06:19:55;;;;;;;;;;;19.60;99.90;;;;;;5083138;28;19924;-44
2023/07/08 06:22:21;;;;;;;;;;;19.70;99.90;;;;;;5120063;27;19989;-44
2023/07/08 06:24:48;;;;;;;;;;;19.80;99.90;;;;;;5091065;28;20732;-45
2023/07/08 06:27:15;;;;;;;;;;;20.00;99.90;;;;;;5075297;28;19925;-44
2023/07/08 06:29:41;;;;;;;;;;;20.10;99.90;;;;;;5073261;28;19978;-44
2023/07/08 06:32:10;;;;;;;;;;;20.20;99.90;;;;;;5065435;28;19936;-44
2023/07/08 06:34:37;;;;;;;;;;;20.30;99.90;;;;;;5056554;28;19928;-44
2023/07/08 06:37:03;;;;;;;;;;;20.50;99.90;;;;;;5074890;28;19924;-44
2023/07/08 06:39:30;;;;;;;;;;;20.60;99.90;;;;;;5073734;28;20395;-43
2023/07/08 06:41:57;;;;;;;;;;;20.80;99.90;;;;;;5073260;28;19928;-44
2023/07/08 06:44:25;;;;;;;;;;;20.80;99.80;;;;;;5072542;28;19932;-44
2023/07/08 06:46:52;;;;;;;;;;;21.00;99.60;;;;;;5072969;28;19924;-43
2023/07/08 06:49:20;;;;;;;;;;;21.10;99.40;;;;;;5075114;28;19936;-44
2023/07/08 06:51:46;;;;;;;;;;;21.20;99.30;;;;;;5073451;28;19932;-44
2023/07/08 06:54:13;;;;;;;;;;;21.40;99.30;;;;;;5058574;28;19928;-44
2023/07/08 06:56:40;;;;;;;;;;;21.50;98.90;;;;;;5055965;28;19986;-43
2023/07/08 06:59:07;;;;;;;;;;;21.70;98.30;;;;;;5071405;28;19932;-44
2023/07/08 07:01:33;;;;;;;;;;;21.80;98.40;;;;;;5057025;28;19947;-44
2023/07/08 07:04:01;;;;;;;;;;;21.90;98.30;;;;;;5062516;28;19928;-44
2023/07/08 07:06:29;;;;;;;;;;;22.10;98.00;;;;;;5072801;28;20306;-43
2023/07/08 07:08:55;;;;;;;;;;;22.30;97.70;;;;;;5066613;28;20434;-44
2023/07/08 07:11:22;;;;;;;;;;;22.40;97.40;;;;;;5071972;28;19928;-43
2023/07/08 07:13:49;;;;;;;;;;;22.60;97.60;;;;;;5082629;28;19928;-44
2023/07/08 07:16:16;;;;;;;;;;;22.80;97.40;;;;;;5085881;28;20614;-43
2023/07/08 07:18:42;;;;;;;;;;;22.90;96.80;;;;;;5071499;28;19954;-44
2023/07/08 07:21:09;;;;;;;;;;;23.10;96.70;;;;;;5073505;28;19928;-44
2023/07/08 07:23:37;;;;;;;;;;;23.30;96.70;;;;;;5074268;28;19924;-44
2023/07/08 07:26:04;;;;;;;;;;;23.50;95.80;;;;;;5072283;28;20555;-43
2023/07/08 07:28:31;;;;;;;;;;;23.60;95.80;;;;;;5072396;28;19970;-44
2023/07/08 07:30:57;;;;;;;;;;;23.70;94.70;;;;;;5071654;28;19928;-44
2023/07/08 07:33:24;;;;;;;;;;;23.80;94.50;;;;;;5086742;28;20326;-44
2023/07/08 07:35:51;;;;;;;;;;;23.90;94.10;;;;;;5071781;28;19925;-44
2023/07/08 07:38:21;;;;;;;;;;;24.00;94.20;;;;;;5069045;28;19924;-44
2023/07/08 07:40:49;;;;;;;;;;;24.20;93.90;;;;;;5068371;28;19925;-43
2023/07/08 07:43:15;;;;;;;;;;;24.30;92.80;;;;;;5073637;28;20353;-44
2023/07/08 07:45:42;;;;;;;;;;;24.40;93.10;;;;;;5072754;28;20289;-45
2023/07/08 07:48:09;;;;;;;;;;;24.50;93.10;;;;;;5072471;28;19925;-44
2023/07/08 07:50:36;;;;;;;;;;;24.60;93.10;;;;;;5060869;28;20003;-44
2023/07/08 07:53:02;;;;;;;;;;;24.80;92.00;;;;;;5071589;28;19930;-44
2023/07/08 07:55:29;;;;;;;;;;;24.90;92.50;;;;;;5070719;28;20387;-44
2023/07/08 07:57:57;;;;;;;;;;;25.00;90.60;;;;;;5073589;28;19924;-44
2023/07/08 08:00:24;;;;;;;;;;;25.10;91.40;;;;;;5070027;28;19925;-43
2023/07/08 08:02:50;;;;;;;;;;;25.20;90.50;;;;;;5077268;28;19928;-43
2023/07/08 08:05:18;;;;;;;;;;;25.30;90.30;;;;;;5069106;28;19920;-42
2023/07/08 08:07:47;;;;;;;;;;;25.40;90.70;;;;;;5070810;28;19924;-44
2023/07/08 08:10:14;;;;;;;;;;;25.50;90.60;;;;;;5069661;28;19928;-44
2023/07/08 08:12:41;;;;;;;;;;;25.70;90.00;;;;;;5053262;28;19929;-43
2023/07/08 08:15:10;;;;;;;;;;;25.70;90.40;;;;;;5067039;28;19924;-44
2023/07/08 08:17:36;;;;;;;;;;;25.90;91.00;;;;;;5070756;28;19993;-44
2023/07/08 08:20:03;;;;;;;;;;;26.10;90.40;;;;;;5071349;28;19932;-44
2023/07/08 08:22:30;;;;;;;;;;;26.30;90.50;;;;;;5059561;28;20387;-45
2023/07/08 08:24:56;;;;;;;;;;;26.40;87.80;;;;;;5083312;28;19928;-45
2023/07/08 08:27:23;;;;;;;;;;;26.50;88.00;;;;;;5083124;28;20376;-44
2023/07/08 08:29:50;;;;;;;;;;;26.70;87.50;;;;;;5067650;28;19931;-45
2023/07/08 08:32:18;;;;;;;;;;;26.90;87.10;;;;;;5058013;28;19924;-44
2023/07/08 08:34:45;;;;;;;;;;;27.00;86.10;;;;;;5103941;28;19986;-45
2023/07/08 08:37:11;;;;;;;;;;;27.10;86.00;;;;;;5072628;28;19924;-43
2023/07/08 08:39:38;;;;;;;;;;;27.20;87.80;;;;;;5071371;28;19928;-45
2023/07/08 08:42:05;;;;;;;;;;;27.40;87.60;;;;;;5103582;28;19924;-42
2023/07/08 08:44:32;;;;;;;;;;;27.50;87.40;;;;;;5063549;28;19932;-43
2023/07/08 08:47:01;;;;;;;;;;;27.70;85.80;;;;;;5073843;28;19929;-44
2023/07/08 08:49:31;;;;;;;;;;;27.90;83.90;;;;;;5072605;28;19931;-45
2023/07/08 08:51:58;;;;;;;;;;;28.00;82.80;;;;;;5071218;28;19925;-46
2023/07/08 08:54:25;;;;;;;;;;;28.00;82.50;;;;;;5065266;28;19976;-44
2023/07/08 08:56:53;;;;;;;;;;;28.10;83.70;;;;;;5075531;28;19928;-43
2023/07/08 08:59:23;;;;;;;;;;;28.20;80.20;;;;;;5066240;28;19928;-43
2023/07/08 09:01:49;;;;;;;;;;;28.20;81.90;;;;;;5081741;28;19932;-43
2023/07/08 09:04:16;;;;;;;;;;;28.30;82.10;;;;;;5077456;28;19929;-44
2023/07/08 09:06:44;;;;;;;;;;;28.40;80.20;;;;;;5074405;28;20025;-44
2023/07/08 09:09:16;;;;;;;;;;;28.50;80.60;;;;;;5070328;28;19970;-45
2023/07/08 09:11:43;;;;;;;;;;;28.50;77.60;;;;;;5087025;28;19960;-44
2023/07/08 09:14:14;;;;;;;;;;;28.60;79.30;;;;;;5069385;28;19965;-45
2023/07/08 09:16:41;;;;;;;;;;;28.70;78.70;;;;;;5052294;28;19935;-44
2023/07/08 09:19:10;;;;;;;;;;;28.70;77.40;;;;;;5068071;28;19925;-45
2023/07/08 09:21:38;;;;;;;;;;;28.80;77.60;;;;;;5069756;28;20361;-45
2023/07/08 09:24:08;;;;;;;;;;;28.90;75.20;;;;;;5060964;28;19924;-45
2023/07/08 09:26:35;;;;;;;;;;;29.00;77.20;;;;;;5066621;28;19952;-44
2023/07/08 09:29:02;;;;;;;;;;;29.10;76.60;;;;;;5071890;28;20376;-45
2023/07/08 09:31:29;;;;;;;;;;;29.40;78.60;;;;;;5056633;28;20418;-45
2023/07/08 09:34:05;;;;;;;;;;;29.60;75.40;;;;;;5078257;28;19924;-45
2023/07/08 09:36:32;;;;;;;;;;;29.70;74.50;;;;;;5062329;28;19929;-44
2023/07/08 09:38:58;;;;;;;;;;;29.80;75.30;;;;;;5067405;28;19985;-44
2023/07/08 09:41:33;;;;;;;;;;;29.90;73.70;;;;;;5069550;28;19924;-44
2023/07/08 09:44:07;;;;;;;;;;;30.00;73.40;;;;;;5071064;28;19933;-44
2023/07/08 09:46:37;;;;;;;;;;;30.10;74.20;;;;;;5068537;28;19940;-45
2023/07/08 09:49:10;;;;;;;;;;;30.10;74.80;;;;;;5068545;28;20439;-44
2023/07/08 09:51:36;;;;;;;;;;;30.20;72.30;;;;;;5070772;28;19924;-45
2023/07/08 09:54:03;;;;;;;;;;;30.30;72.50;;;;;;5070019;28;19963;-44
2023/07/08 09:56:30;;;;;;;;;;;30.50;72.60;;;;;;5109496;28;19936;-44
2023/07/08 09:58:58;;;;;;;;;;;30.60;71.90;;;;;;5079935;28;20365;-44
2023/07/08 10:01:25;;;;;;;;;;;30.70;71.50;;;;;;5083322;28;19924;-44
2023/07/08 10:03:52;;;;;;;;;;;30.90;72.50;;;;;;5054613;28;19925;-44
2023/07/08 10:06:20;;;;;;;;;;;31.00;70.10;;;;;;5060329;28;19924;-44
2023/07/08 10:08:47;;;;;;;;;;;31.10;68.00;;;;;;5051874;28;19925;-44
2023/07/08 10:11:18;;;;;;;;;;;31.20;68.30;;;;;;5050428;28;19932;-45
2023/07/08 10:13:45;;;;;;;;;;;31.20;68.40;;;;;;5068789;28;19924;-44
2023/07/08 10:16:14;;;;;;;;;;;31.20;67.00;;;;;;5052532;28;20361;-44
2023/07/08 10:18:41;;;;;;;;;;;31.30;70.60;;;;;;5051945;28;19970;-44
2023/07/08 10:21:09;;;;;;;;;;;31.40;66.60;;;;;;5067846;28;19925;-45
2023/07/08 10:23:39;;;;;;;;;;;31.40;67.20;;;;;;5074445;28;19925;-45
2023/07/08 10:26:07;;;;;;;;;;;31.50;67.70;;;;;;5073843;28;20373;-45
2023/07/08 10:28:35;;;;;;;;;;;31.60;68.70;;;;;;5061617;28;19924;-46
2023/07/08 10:31:08;;;;;;;;;;;31.70;69.00;;;;;;5055383;28;19925;-45
2023/07/08 10:33:40;;;;;;;;;;;31.90;68.40;;;;;;5055078;28;19932;-45
2023/07/08 10:36:12;;;;;;;;;;;32.00;66.90;;;;;;5061434;28;19979;-44
2023/07/08 10:38:42;;;;;;;;;;;32.10;63.90;;;;;;5059530;28;19936;-45
2023/07/08 10:41:10;;;;;;;;;;;32.20;67.10;;;;;;5063458;28;19928;-46
2023/07/08 10:43:44;;;;;;;;;;;32.40;66.40;;;;;;5107191;28;19978;-45
2023/07/08 10:46:15;;;;;;;;;;;32.50;66.40;;;;;;5069862;28;19947;-45
2023/07/08 10:49:02;;;;;;;;;;;32.60;61.70;;;;;;5056489;28;20368;-45
2023/07/08 10:51:34;;;;;;;;;;;32.70;63.70;;;;;;5052087;28;19931;-44
2023/07/08 10:54:06;;;;;;;;;;;32.70;63.50;;;;;;5080636;28;19929;-45
2023/07/08 10:56:36;;;;;;;;;;;32.70;62.80;;;;;;5067146;28;19975;-45
2023/07/08 10:59:19;;;;;;;;;;;32.70;62.70;;;;;;5070166;28;20376;-45
2023/07/08 11:01:50;;;;;;;;;;;32.80;65.00;;;;;;5059687;28;19925;-45
2023/07/08 11:04:27;;;;;;;;;;;32.90;63.30;;;;;;5064713;28;19930;-44
2023/07/08 11:06:57;;;;;;;;;;;33.00;61.20;;;;;;5072513;28;20399;-45
2023/07/08 11:09:25;;;;;;;;;;;33.10;62.00;;;;;;5072451;28;19924;-46
2023/07/08 11:11:52;;;;;;;;;;;33.20;61.70;;;;;;5072307;28;19933;-44
2023/07/08 11:14:21;;;;;;;;;;;33.30;60.50;;;;;;5062315;28;20004;-45
2023/07/08 11:16:48;;;;;;;;;;;33.30;60.60;;;;;;5077236;28;19925;-45
2023/07/08 11:19:16;;;;;;;;;;;33.40;58.10;;;;;;5080522;28;19933;-44
2023/07/08 11:21:44;;;;;;;;;;;33.30;57.70;;;;;;5054984;28;20401;-45
2023/07/08 11:24:13;;;;;;;;;;;33.30;60.50;;;;;;5068716;28;19985;-45
2023/07/08 11:26:42;;;;;;;;;;;33.40;58.60;;;;;;5067965;28;19979;-45
2023/07/08 11:29:10;;;;;;;;;;;33.60;58.10;;;;;;5076896;28;19924;-45
2023/07/08 11:31:37;;;;;;;;;;;33.60;58.30;;;;;;5068686;28;19929;-44
2023/07/08 11:34:03;;;;;;;;;;;33.70;58.10;;;;;;5054175;28;19951;-45
2023/07/08 11:36:30;;;;;;;;;;;33.70;56.70;;;;;;5067952;28;19931;-45
2023/07/08 11:38:57;;;;;;;;;;;33.70;57.60;;;;;;5072132;28;19977;-46
2023/07/08 11:41:26;;;;;;;;;;;33.70;57.50;;;;;;5072027;28;19970;-45
2023/07/08 11:43:53;;;;;;;;;;;33.70;55.20;;;;;;5075578;28;19977;-44
2023/07/08 11:46:20;;;;;;;;;;;33.70;57.40;;;;;;5069511;28;19924;-45
2023/07/08 11:48:47;;;;;;;;;;;33.70;58.70;;;;;;5072073;28;19925;-46
2023/07/08 11:51:17;;;;;;;;;;;33.90;58.40;;;;;;5108280;27;19992;-46
2023/07/08 11:53:47;;;;;;;;;;;33.90;57.80;;;;;;5084470;28;19978;-47
2023/07/08 11:56:21;;;;;;;;;;;34.10;57.00;;;;;;5071743;28;20339;-44
2023/07/08 11:58:54;;;;;;;;;;;34.20;58.30;;;;;;5072112;28;19925;-44
2023/07/08 12:01:24;;;;;;;;;;;34.40;57.10;;;;;;5072527;28;19925;-44
2023/07/08 12:03:51;;;;;;;;;;;34.40;56.50;;;;;;5069237;28;19976;-42
2023/07/08 12:06:37;;;;;;;;;;;34.50;55.80;;;;;;5066193;28;20372;-43
2023/07/08 12:09:14;;;;;;;;;;;34.60;55.90;;;;;;5059570;28;20350;-43
2023/07/08 12:11:41;;;;;;;;;;;34.70;55.20;;;;;;5069854;28;19986;-44
2023/07/08 12:14:09;;;;;;;;;;;34.80;55.60;;;;;;5073163;28;20284;-43
2023/07/08 12:16:36;;;;;;;;;;;34.90;54.60;;;;;;5071122;28;20361;-43
2023/07/08 12:19:04;;;;;;;;;;;35.00;54.90;;;;;;5066011;28;20343;-43
2023/07/08 12:21:31;;;;;;;;;;;35.00;53.20;;;;;;5060656;28;19929;-44
2023/07/08 12:24:01;;;;;;;;;;;35.00;55.20;;;;;;5100800;28;19925;-44
2023/07/08 12:26:28;;;;;;;;;;;35.10;54.60;;;;;;5072571;28;19928;-43
2023/07/08 12:28:54;;;;;;;;;;;35.20;54.70;;;;;;5065867;28;19932;-44
2023/07/08 12:31:23;;;;;;;;;;;35.30;53.30;;;;;;5096673;28;19982;-43
2023/07/08 12:33:50;;;;;;;;;;;35.30;53.60;;;;;;5066471;28;19925;-44
2023/07/08 12:36:17;;;;;;;;;;;35.40;55.50;;;;;;5073743;28;19932;-43
2023/07/08 12:38:44;;;;;;;;;;;35.50;54.90;;;;;;5072507;28;19933;-44
2023/07/08 12:41:11;;;;;;;;;;;35.60;52.20;;;;;;5057862;28;19929;-43
2023/07/08 12:43:38;;;;;;;;;;;35.70;52.90;;;;;;5055567;28;19932;-45
2023/07/08 12:46:05;;;;;;;;;;;35.70;51.70;;;;;;5053281;28;19970;-44
2023/07/08 12:48:33;;;;;;;;;;;35.70;53.60;;;;;;5070435;28;20366;-44
2023/07/08 12:51:03;;;;;;;;;;;35.70;53.30;;;;;;5071481;28;20379;-44
2023/07/08 12:53:31;;;;;;;;;;;35.60;50.40;;;;;;5072508;28;20560;-44
2023/07/08 12:55:58;;;;;;;;;;;35.60;52.10;;;;;;5072455;28;19931;-42
2023/07/08 12:58:27;;;;;;;;;;;35.70;51.10;;;;;;5054887;28;19925;-43
2023/07/08 13:00:54;;;;;;;;;;;35.70;50.70;;;;;;5069148;28;19962;-44
2023/07/08 13:03:24;;;;;;;;;;;35.70;51.10;;;;;;5067390;28;20407;-44
2023/07/08 13:05:52;;;;;;;;;;;35.70;49.60;;;;;;5059017;28;19931;-44
2023/07/08 13:08:20;;;;;;;;;;;35.70;49.80;;;;;;5071834;28;19936;-43
2023/07/08 13:10:47;;;;;;;;;;;35.70;50.50;;;;;;5072536;28;19970;-43
2023/07/08 13:13:14;;;;;;;;;;;35.70;52.20;;;;;;5051908;28;19925;-44
2023/07/08 13:15:42;;;;;;;;;;;35.90;52.00;;;;;;5061463;28;19928;-44
2023/07/08 13:18:09;;;;;;;;;;;36.00;49.90;;;;;;5070334;28;19925;-44
2023/07/08 13:20:36;;;;;;;;;;;36.10;50.90;;;;;;5071883;28;19928;-44
2023/07/08 13:23:04;;;;;;;;;;;36.10;50.40;;;;;;5076207;28;19932;-43
2023/07/08 13:25:32;;;;;;;;;;;36.10;49.40;;;;;;5091672;28;19925;-44
2023/07/08 13:27:59;;;;;;;;;;;36.20;51.60;;;;;;5078729;28;19932;-44
2023/07/08 13:30:27;;;;;;;;;;;36.30;48.70;;;;;;5122045;28;19931;-44
2023/07/08 13:32:53;;;;;;;;;;;36.30;50.20;;;;;;5085477;28;20398;-44
2023/07/08 13:35:24;;;;;;;;;;;36.40;49.00;;;;;;5070285;28;19955;-45
2023/07/08 13:37:50;;;;;;;;;;;36.50;49.70;;;;;;5054151;28;19924;-45
2023/07/08 13:40:18;;;;;;;;;;;36.60;50.50;;;;;;5065913;28;19924;-45
2023/07/08 13:42:49;;;;;;;;;;;36.60;49.10;;;;;;5069839;28;20335;-44
2023/07/08 13:45:16;;;;;;;;;;;36.70;49.80;;;;;;5055505;28;19968;-45
2023/07/08 13:47:43;;;;;;;;;;;36.70;48.60;;;;;;5064204;28;19932;-46
2023/07/08 13:50:13;;;;;;;;;;;36.70;49.60;;;;;;5061869;28;19970;-45
2023/07/08 13:52:39;;;;;;;;;;;36.80;49.50;;;;;;5051255;28;19932;-44
2023/07/08 13:55:07;;;;;;;;;;;36.70;48.30;;;;;;5067345;28;19970;-42
2023/07/08 13:57:37;;;;;;;;;;;36.80;50.60;;;;;;5058758;28;20372;-43
2023/07/08 14:00:04;;;;;;;;;;;36.90;49.90;;;;;;5068369;28;19924;-45
2023/07/08 14:02:31;;;;;;;;;;;37.00;49.00;;;;;;5070287;28;20766;-43
2023/07/08 14:04:58;;;;;;;;;;;37.00;48.60;;;;;;5072923;28;19974;-43
2023/07/08 14:07:26;;;;;;;;;;;37.00;49.00;;;;;;5073659;28;19924;-44
2023/07/08 14:09:54;;;;;;;;;;;37.00;47.40;;;;;;5069875;28;20414;-45
2023/07/08 14:12:20;;;;;;;;;;;37.00;50.20;;;;;;5055170;28;19925;-44
2023/07/08 14:14:48;;;;;;;;;;;37.00;48.80;;;;;;5065511;28;20296;-44
2023/07/08 14:17:16;;;;;;;;;;;37.00;48.70;;;;;;5074131;28;19925;-43
2023/07/08 14:19:43;;;;;;;;;;;37.00;49.00;;;;;;5071942;28;19932;-44